createdAt,value
2019-05-12T00:02:13.175Z,2.57
2019-05-12T00:05:23.836Z,2.10
2019-05-12T00:08:33.626Z,1.90
2019-05-12T00:11:44.462Z,1.63
2019-05-12T00:14:54.388Z,2.03
2019-05-12T00:18:05.108Z,2.20
2019-05-12T00:21:17.698Z,2.50
2019-05-12T00:24:28.122Z,1.70
2019-05-12T00:27:38.739Z,2.30
2019-05-12T00:30:51.511Z,3.07
2019-05-12T00:34:03.040Z,2.50
2019-05-12T00:37:13.633Z,2.90
2019-05-12T00:40:23.413Z,2.43
2019-05-12T00:43:33.414Z,2.13
2019-05-12T00:46:44.254Z,1.80
2019-05-12T00:49:54.178Z,1.93
2019-05-12T00:53:04.422Z,2.40
2019-05-12T00:56:15.206Z,1.60
2019-05-12T00:59:27.815Z,1.90
2019-05-12T01:02:38.228Z,1.27
2019-05-12T01:05:48.542Z,1.50
2019-05-12T01:08:59.624Z,1.60
2019-05-12T01:12:09.490Z,1.37
2019-05-12T01:15:19.351Z,2.10
2019-05-12T01:18:30.182Z,1.37
2019-05-12T01:21:41.050Z,1.67
2019-05-12T01:24:51.725Z,1.63
2019-05-12T01:28:03.608Z,1.30
2019-05-12T01:31:15.100Z,2.27
2019-05-12T01:34:27.748Z,1.63
2019-05-12T01:37:38.775Z,1.10
2019-05-12T01:40:49.212Z,1.27
2019-05-12T01:43:59.543Z,1.30
2019-05-12T01:47:10.432Z,1.00
2019-05-12T01:50:21.078Z,0.90
2019-05-12T01:53:31.838Z,1.30
2019-05-12T01:56:42.626Z,1.10
2019-05-12T01:59:53.356Z,0.70
2019-05-12T02:03:03.612Z,1.00
2019-05-12T02:06:14.240Z,1.00
2019-05-12T02:09:28.019Z,0.90
2019-05-12T02:12:38.565Z,1.07
2019-05-12T02:15:49.708Z,0.73
2019-05-12T02:18:59.750Z,1.03
2019-05-12T02:22:10.425Z,0.80
2019-05-12T02:25:21.232Z,0.80
2019-05-12T02:28:31.746Z,1.20
2019-05-12T02:31:42.009Z,0.80
2019-05-12T02:34:54.810Z,1.17
2019-05-12T02:38:10.310Z,0.80
2019-05-12T02:41:21.331Z,0.87
2019-05-12T02:44:34.567Z,1.03
2019-05-12T02:47:45.688Z,0.90
2019-05-12T02:50:56.571Z,1.03
2019-05-12T02:54:07.366Z,0.80
2019-05-12T02:57:19.370Z,0.80
2019-05-12T03:00:35.126Z,0.90
2019-05-12T03:03:48.182Z,1.10
2019-05-12T03:07:06.542Z,1.30
2019-05-12T03:10:25.310Z,0.70
2019-05-12T03:17:47.216Z,1.13
2019-05-12T03:21:00.216Z,0.60
2019-05-12T03:24:14.708Z,1.47
2019-05-12T03:27:25.826Z,0.87
2019-05-12T03:30:41.311Z,0.73
2019-05-12T03:34:10.881Z,1.03
2019-05-12T03:37:20.396Z,1.00
2019-05-12T03:40:38.252Z,0.80
2019-05-12T03:54:07.436Z,0.93
2019-05-12T03:57:25.216Z,1.00
2019-05-12T04:00:35.697Z,0.77
2019-05-12T04:03:45.713Z,0.90
2019-05-12T04:06:55.335Z,1.07
2019-05-12T04:10:11.734Z,0.90
2019-05-12T04:16:45.358Z,1.27
2019-05-12T04:20:04.746Z,1.00
2019-05-12T04:30:10.429Z,0.90
2019-05-12T04:33:21.204Z,1.20
2019-05-12T04:36:35.595Z,1.33
2019-05-12T04:46:41.062Z,1.10
2019-05-12T04:49:54.671Z,1.10
2019-05-12T04:53:10.864Z,1.10
2019-05-12T04:56:24.744Z,0.80
2019-05-12T04:59:34.536Z,1.30
2019-05-12T05:02:45.744Z,1.20
2019-05-12T05:05:56.764Z,1.27
2019-05-12T05:09:14.482Z,1.07
2019-05-12T05:12:26.394Z,1.10
2019-05-12T05:15:36.024Z,1.50
2019-05-12T05:18:45.667Z,1.00
2019-05-12T05:21:58.835Z,1.50
2019-05-12T05:25:14.232Z,1.37
2019-05-12T05:28:26.617Z,1.13
2019-05-12T05:31:36.549Z,1.20
2019-05-12T05:34:53.703Z,1.10
2019-05-12T05:37:59.375Z,1.17
2019-05-12T05:41:15.363Z,1.10
2019-05-12T05:44:39.161Z,0.90
2019-05-12T05:47:49.283Z,1.30
2019-05-12T05:50:59.879Z,0.80
2019-05-12T05:54:13.749Z,1.77
2019-05-12T05:57:27.771Z,1.70
2019-05-12T06:00:39.029Z,1.40
2019-05-12T06:03:47.821Z,1.70
2019-05-12T06:06:58.104Z,1.20
2019-05-12T06:13:34.570Z,0.90
2019-05-12T06:22:27.881Z,0.90
2019-05-12T06:25:05.060Z,0.77
2019-05-12T06:27:40.470Z,0.83
2019-05-12T06:30:15.519Z,0.90
2019-05-12T06:32:52.412Z,1.03
2019-05-12T06:35:30.990Z,0.90
2019-05-12T06:38:05.465Z,0.50
2019-05-12T06:40:42.402Z,0.50
2019-05-12T06:43:17.388Z,1.00
2019-05-12T06:45:54.424Z,0.50
2019-05-12T06:48:30.282Z,0.73
2019-05-12T06:51:09.228Z,0.60
2019-05-12T06:53:44.331Z,0.60
2019-05-12T06:56:28.027Z,0.70
2019-05-12T06:59:09.764Z,0.50
2019-05-12T07:01:40.690Z,0.50
2019-05-12T07:04:15.781Z,0.63
2019-05-12T07:06:56.174Z,0.70
2019-05-12T07:09:29.471Z,0.60
2019-05-12T07:12:07.219Z,0.70
2019-05-12T07:14:43.825Z,0.70
2019-05-12T07:17:37.247Z,0.53
2019-05-12T07:20:08.691Z,0.50
2019-05-12T07:22:48.100Z,0.60
2019-05-12T07:25:22.794Z,0.80
2019-05-12T07:28:00.781Z,0.63
2019-05-12T07:30:35.140Z,0.53
2019-05-12T07:33:10.490Z,0.57
2019-05-12T07:35:46.151Z,0.50
2019-05-12T07:38:25.716Z,1.00
2019-05-12T07:41:08.243Z,0.60
2019-05-12T07:43:40.724Z,0.60
2019-05-12T07:46:18.504Z,0.40
2019-05-12T07:48:54.205Z,0.67
2019-05-12T07:51:35.165Z,0.77
2019-05-12T07:54:06.815Z,0.80
2019-05-12T07:56:44.250Z,0.70
2019-05-12T07:59:18.977Z,0.40
2019-05-12T08:01:54.964Z,0.53
2019-05-12T08:04:31.671Z,0.40
2019-05-12T08:07:06.977Z,0.80
2019-05-12T08:09:43.218Z,0.63
2019-05-12T08:12:20.958Z,0.60
2019-05-12T08:14:59.468Z,0.90
2019-05-12T08:17:33.713Z,0.60
2019-05-12T08:20:09.454Z,0.50
2019-05-12T08:22:44.810Z,0.70
2019-05-12T08:25:24.810Z,0.50
2019-05-12T08:28:11.104Z,0.70
2019-05-12T08:30:40.373Z,0.70
2019-05-12T08:33:14.721Z,0.80
2019-05-12T08:35:49.917Z,0.67
2019-05-12T08:38:25.196Z,0.50
2019-05-12T08:41:01.243Z,0.80
2019-05-12T08:43:40.482Z,0.67
2019-05-12T08:46:15.604Z,0.70
2019-05-12T08:48:51.457Z,0.70
2019-05-12T08:51:26.917Z,0.70
2019-05-12T08:54:07.965Z,0.50
2019-05-12T08:56:40.446Z,0.60
2019-05-12T08:59:18.452Z,0.70
2019-05-12T09:01:54.078Z,0.53
2019-05-12T09:04:29.114Z,0.70
2019-05-12T09:07:04.547Z,0.73
2019-05-12T09:09:39.575Z,0.70
2019-05-12T09:12:15.716Z,0.53
2019-05-12T09:14:50.864Z,0.57
2019-05-12T09:17:26.086Z,0.63
2019-05-12T09:20:06.030Z,0.50
2019-05-12T09:22:38.194Z,0.60
2019-05-12T09:25:25.529Z,0.53
2019-05-12T09:28:00.506Z,0.50
2019-05-12T09:30:39.982Z,0.67
2019-05-12T09:33:14.024Z,0.60
2019-05-12T09:35:49.335Z,0.50
2019-05-12T09:38:26.405Z,0.43
2019-05-12T09:41:03.259Z,0.40
2019-05-12T09:43:40.179Z,0.63
2019-05-12T09:46:15.318Z,0.60
2019-05-12T09:48:52.324Z,0.40
2019-05-12T09:51:32.958Z,0.50
2019-05-12T09:54:05.210Z,0.50
2019-05-12T09:56:41.297Z,0.30
2019-05-12T09:59:22.926Z,1.37
2019-05-12T10:01:55.292Z,0.50
2019-05-12T10:04:30.612Z,0.93
2019-05-12T10:07:06.809Z,0.50
2019-05-12T10:09:43.932Z,0.40
2019-05-12T10:12:18.832Z,0.30
2019-05-12T10:14:53.999Z,0.80
2019-05-12T10:17:30.319Z,0.53
2019-05-12T10:20:06.082Z,0.37
2019-05-12T10:22:43.563Z,0.47
2019-05-12T10:25:23.112Z,0.30
2019-05-12T10:27:55.232Z,0.47
2019-05-12T10:30:30.521Z,0.60
2019-05-12T10:33:05.526Z,0.70
2019-05-12T10:35:40.904Z,0.50
2019-05-12T10:38:16.038Z,0.50
2019-05-12T10:40:51.053Z,0.40
2019-05-12T10:43:26.324Z,0.40
2019-05-12T10:46:04.038Z,0.60
2019-05-12T10:48:38.185Z,0.50
2019-05-12T10:51:13.363Z,0.40
2019-05-12T10:53:56.796Z,0.63
2019-05-12T10:56:25.368Z,0.80
2019-05-12T10:59:00.863Z,0.90
2019-05-12T11:01:38.502Z,0.80
2019-05-12T11:04:14.421Z,0.50
2019-05-12T11:06:49.492Z,0.60
2019-05-12T11:09:29.395Z,0.70
2019-05-12T11:12:03.357Z,0.70
2019-05-12T11:14:38.733Z,0.80
2019-05-12T11:17:17.558Z,0.70
2019-05-12T11:19:58.178Z,0.73
2019-05-12T11:22:33.974Z,0.80
2019-05-12T11:25:09.306Z,0.70
2019-05-12T11:27:44.593Z,0.70
2019-05-12T11:30:20.638Z,0.53
2019-05-12T11:32:55.830Z,0.50
2019-05-12T11:35:30.963Z,0.70
2019-05-12T11:38:13.474Z,0.70
2019-05-12T11:40:53.708Z,0.50
2019-05-12T11:43:29.852Z,0.60
2019-05-12T11:46:06.457Z,0.90
2019-05-12T11:48:46.330Z,0.90
2019-05-12T11:51:20.736Z,0.60
2019-05-12T11:53:55.744Z,0.43
2019-05-12T11:56:30.956Z,0.70
2019-05-12T11:59:11.106Z,0.40
2019-05-12T12:01:51.470Z,0.60
2019-05-12T12:04:28.258Z,0.40
2019-05-12T12:07:03.440Z,0.40
2019-05-12T12:09:38.536Z,0.50
2019-05-12T12:12:13.629Z,0.80
2019-05-12T12:14:50.382Z,0.30
2019-05-12T12:17:30.956Z,0.50
2019-05-12T12:20:03.719Z,0.30
2019-05-12T12:22:46.090Z,0.60
2019-05-12T12:25:30.423Z,0.70
2019-05-12T12:28:05.626Z,0.40
2019-05-12T12:30:40.701Z,0.70
2019-05-12T12:33:15.710Z,0.60
2019-05-12T12:35:56.547Z,0.50
2019-05-12T12:38:27.514Z,0.80
2019-05-12T12:41:03.857Z,0.60
2019-05-12T12:43:38.982Z,0.47
2019-05-12T12:46:27.224Z,0.70
2019-05-12T12:49:06.553Z,0.60
2019-05-12T12:51:39.817Z,0.80
2019-05-12T12:54:14.882Z,0.53
2019-05-12T12:56:49.929Z,0.97
2019-05-12T12:59:24.982Z,0.70
2019-05-12T13:02:07.465Z,1.17
2019-05-12T13:04:39.704Z,0.90
2019-05-12T13:07:14.903Z,0.40
2019-05-12T13:09:55.041Z,0.70
2019-05-12T13:12:26.579Z,0.40
2019-05-12T13:15:03.725Z,0.50
2019-05-12T13:17:41.685Z,0.80
2019-05-12T13:20:16.076Z,0.40
2019-05-12T13:22:53.583Z,0.63
2019-05-12T13:25:28.402Z,0.50
2019-05-12T13:28:10.389Z,0.60
2019-05-12T13:30:46.238Z,0.50
2019-05-12T13:33:18.327Z,1.10
2019-05-12T13:35:55.703Z,0.40
2019-05-12T13:38:38.775Z,0.60
2019-05-12T13:41:09.523Z,0.40
2019-05-12T13:43:45.246Z,1.03
2019-05-12T13:46:20.959Z,0.70
2019-05-12T13:48:59.537Z,0.50
2019-05-12T13:51:33.408Z,0.50
2019-05-12T13:54:08.651Z,0.50
2019-05-12T13:56:44.378Z,0.40
2019-05-12T13:59:22.605Z,0.67
2019-05-12T14:01:59.829Z,0.60
2019-05-12T14:04:35.537Z,0.60
2019-05-12T14:07:15.717Z,0.80
2019-05-12T14:09:47.447Z,0.93
2019-05-12T14:12:22.546Z,0.50
2019-05-12T14:14:57.527Z,0.60
2019-05-12T14:17:37.338Z,0.60
2019-05-12T14:20:15.839Z,0.67
2019-05-12T14:22:46.435Z,0.60
2019-05-12T14:25:29.891Z,0.40
2019-05-12T14:27:59.439Z,0.93
2019-05-12T14:30:35.030Z,0.60
2019-05-12T14:33:10.054Z,0.80
2019-05-12T14:35:46.073Z,0.60
2019-05-12T14:38:25.402Z,0.53
2019-05-12T14:41:01.292Z,0.97
2019-05-12T14:43:35.861Z,0.53
2019-05-12T14:46:11.025Z,0.60
2019-05-12T14:48:50.319Z,0.73
2019-05-12T14:51:24.575Z,0.50
2019-05-12T14:53:59.647Z,0.70
2019-05-12T14:56:34.685Z,0.67
2019-05-12T14:59:09.951Z,0.50
2019-05-12T15:01:57.146Z,0.70
2019-05-12T15:04:27.882Z,0.50
2019-05-12T15:06:59.636Z,0.60
2019-05-12T15:09:35.369Z,0.90
2019-05-12T15:12:13.899Z,0.73
2019-05-12T15:14:48.519Z,0.60
2019-05-12T15:17:24.559Z,0.70
2019-05-12T15:20:00.396Z,0.70
2019-05-12T15:22:36.481Z,0.40
2019-05-12T15:25:14.584Z,0.57
2019-05-12T15:27:50.588Z,0.60
2019-05-12T15:30:26.770Z,0.50
2019-05-12T15:33:04.306Z,0.80
2019-05-12T15:35:38.719Z,0.73
2019-05-12T15:38:14.998Z,0.50
2019-05-12T15:40:50.927Z,0.50
2019-05-12T15:43:25.960Z,0.80
2019-05-12T15:46:01.067Z,0.53
2019-05-12T15:48:36.212Z,0.53
2019-05-12T15:51:13.535Z,0.90
2019-05-12T15:53:49.534Z,0.57
2019-05-12T15:56:26.286Z,0.80
2019-05-12T15:59:02.618Z,0.70
2019-05-12T16:01:37.781Z,0.30
2019-05-12T16:04:15.166Z,0.40
2019-05-12T16:06:53.510Z,0.80
2019-05-12T16:09:26.567Z,0.50
2019-05-12T16:12:09.358Z,0.50
2019-05-12T16:14:41.085Z,0.70
2019-05-12T16:17:24.637Z,0.50
2019-05-12T16:19:54.240Z,0.60
2019-05-12T16:22:35.858Z,0.50
2019-05-12T16:25:07.996Z,0.40
2019-05-12T16:27:44.420Z,0.50
2019-05-12T16:30:25.116Z,0.80
2019-05-12T16:32:58.538Z,0.50
2019-05-12T16:35:34.579Z,0.40
2019-05-12T16:38:17.309Z,0.60
2019-05-12T16:40:49.759Z,0.70
2019-05-12T16:43:24.165Z,0.53
2019-05-12T16:45:59.315Z,0.53
2019-05-12T16:48:36.336Z,0.40
2019-05-12T16:51:13.703Z,0.40
2019-05-12T16:53:48.179Z,0.60
2019-05-12T16:56:29.433Z,0.97
2019-05-12T16:59:07.163Z,1.27
2019-05-12T17:01:38.693Z,0.50
2019-05-12T17:04:14.245Z,0.60
2019-05-12T17:06:50.043Z,0.67
2019-05-12T17:09:25.171Z,0.33
2019-05-12T17:12:00.965Z,0.40
2019-05-12T17:14:44.816Z,0.47
2019-05-12T17:17:14.455Z,0.50
2019-05-12T17:19:49.653Z,0.30
2019-05-12T17:22:24.870Z,0.60
2019-05-12T17:25:00.022Z,0.40
2019-05-12T17:27:35.253Z,0.40
2019-05-12T17:30:10.672Z,0.60
2019-05-12T17:32:58.021Z,0.33
2019-05-12T17:35:26.921Z,0.60
2019-05-12T17:38:01.468Z,0.60
2019-05-12T17:40:36.679Z,0.40
2019-05-12T17:43:12.185Z,0.53
2019-05-12T17:45:50.425Z,0.50
2019-05-12T17:48:24.126Z,0.57
2019-05-12T17:50:59.263Z,0.50
2019-05-12T17:53:36.207Z,0.73
2019-05-12T17:56:11.121Z,0.60
2019-05-12T17:58:47.536Z,0.57
2019-05-12T18:01:31.048Z,0.60
2019-05-12T18:03:59.633Z,0.50
2019-05-12T18:06:34.843Z,0.83
2019-05-12T18:09:15.701Z,0.70
2019-05-12T18:11:54.184Z,0.60
2019-05-12T18:14:27.482Z,0.80
2019-05-12T18:17:07.559Z,0.80
2019-05-12T18:19:37.772Z,0.80
2019-05-12T18:22:14.087Z,0.40
2019-05-12T18:24:50.826Z,0.73
2019-05-12T18:27:26.041Z,0.60
2019-05-12T18:30:01.121Z,0.40
2019-05-12T18:32:36.212Z,0.80
2019-05-12T18:35:13.422Z,0.70
2019-05-12T18:38:07.938Z,0.63
2019-05-12T18:40:40.471Z,0.70
2019-05-12T18:43:15.475Z,0.60
2019-05-12T18:45:57.066Z,0.90
2019-05-12T18:48:27.123Z,0.70
2019-05-12T18:51:11.644Z,0.53
2019-05-12T18:53:38.998Z,0.60
2019-05-12T18:56:19.851Z,0.70
2019-05-12T18:58:51.485Z,0.73
2019-05-12T19:01:26.614Z,0.50
2019-05-12T19:04:03.792Z,0.43
2019-05-12T19:06:40.009Z,0.50
2019-05-12T19:09:15.328Z,0.43
2019-05-12T19:11:50.363Z,0.60
2019-05-12T19:14:34.900Z,0.80
2019-05-12T19:17:03.553Z,0.80
2019-05-12T19:19:40.677Z,0.70
2019-05-12T19:22:15.725Z,0.90
2019-05-12T19:24:56.639Z,0.70
2019-05-12T19:27:27.670Z,0.50
2019-05-12T19:30:04.899Z,0.90
2019-05-12T19:32:40.140Z,0.67
2019-05-12T19:35:20.237Z,1.67
2019-05-12T19:37:53.865Z,0.90
2019-05-12T19:40:29.027Z,0.90
2019-05-12T19:43:08.160Z,0.87
2019-05-12T19:45:43.368Z,0.97
2019-05-12T19:48:24.905Z,0.90
2019-05-12T19:50:57.117Z,0.60
2019-05-12T19:53:33.262Z,1.10
2019-05-12T19:56:08.353Z,0.90
2019-05-12T19:58:45.973Z,0.93
2019-05-12T20:01:26.067Z,1.20
2019-05-12T20:03:58.220Z,1.20
2019-05-12T20:06:33.735Z,1.13
2019-05-12T20:09:11.038Z,1.33
2019-05-12T20:11:46.121Z,1.00
2019-05-12T20:14:24.108Z,1.30
2019-05-12T20:16:58.613Z,1.00
2019-05-12T20:19:35.190Z,1.07
2019-05-12T20:22:11.033Z,1.17
2019-05-12T20:24:46.049Z,1.10
2019-05-12T20:27:22.499Z,1.03
2019-05-12T20:29:57.785Z,1.33
2019-05-12T20:32:34.388Z,1.00
2019-05-12T20:35:09.634Z,1.00
2019-05-12T20:37:53.132Z,1.10
2019-05-12T20:40:23.720Z,1.23
2019-05-12T20:43:07.975Z,1.20
2019-05-12T20:45:40.665Z,1.30
2019-05-12T20:48:11.674Z,1.47
2019-05-12T20:50:47.680Z,0.87
2019-05-12T20:53:31.649Z,1.90
2019-05-12T20:55:59.548Z,1.80
2019-05-12T20:58:43.095Z,1.50
2019-05-12T21:01:11.180Z,1.50
2019-05-12T21:03:50.725Z,2.20
2019-05-12T21:06:23.713Z,1.50
2019-05-12T21:08:58.884Z,1.57
2019-05-12T21:11:34.662Z,1.17
2019-05-12T21:14:11.630Z,1.33
2019-05-12T21:16:46.292Z,1.70
2019-05-12T21:19:23.779Z,1.17
2019-05-12T21:21:59.453Z,1.20
2019-05-12T21:24:39.134Z,1.10
2019-05-12T21:27:18.276Z,1.50
2019-05-12T21:29:50.225Z,1.00
2019-05-12T21:32:30.110Z,1.87
2019-05-12T21:35:18.275Z,1.60
2019-05-12T21:37:45.412Z,2.13
2019-05-12T21:40:22.357Z,1.67
2019-05-12T21:42:55.289Z,1.20
2019-05-12T21:45:31.092Z,1.33
2019-05-12T21:48:06.180Z,1.10
2019-05-12T21:50:41.536Z,1.47
2019-05-12T21:53:20.615Z,1.40
2019-05-12T21:56:03.834Z,1.20
2019-05-12T21:58:33.427Z,1.50
2019-05-12T22:01:13.447Z,2.57
2019-05-12T22:03:57.823Z,1.20
2019-05-12T22:06:26.014Z,1.13
2019-05-12T22:09:04.563Z,1.33
2019-05-12T22:11:42.311Z,2.00
2019-05-12T22:14:16.314Z,2.03
2019-05-12T22:16:53.654Z,1.77
2019-05-12T22:19:30.879Z,1.80
2019-05-12T22:22:05.418Z,1.83
2019-05-12T22:24:40.517Z,2.27
2019-05-12T22:27:21.994Z,1.50
2019-05-12T22:29:52.180Z,1.23
2019-05-12T22:32:29.541Z,1.33
2019-05-12T22:35:04.040Z,2.00
2019-05-12T22:37:38.986Z,1.57
2019-05-12T22:40:19.110Z,1.40
2019-05-12T22:42:56.953Z,1.50
2019-05-12T22:45:29.180Z,1.60
2019-05-12T22:48:04.576Z,1.67
2019-05-12T22:50:39.632Z,1.73
2019-05-12T22:53:19.420Z,1.60
2019-05-12T22:55:53.277Z,2.00
2019-05-12T22:58:27.999Z,2.00
2019-05-12T23:01:05.404Z,2.53
2019-05-12T23:03:43.175Z,1.60
2019-05-12T23:06:23.703Z,1.57
2019-05-12T23:08:54.333Z,1.63
2019-05-12T23:11:37.674Z,2.07
2019-05-12T23:14:06.033Z,1.93
2019-05-12T23:16:41.030Z,1.70
2019-05-12T23:19:16.758Z,1.50
2019-05-12T23:21:55.327Z,1.80
2019-05-12T23:24:30.474Z,1.67
2019-05-12T23:27:08.840Z,1.90
2019-05-12T23:29:44.370Z,2.10
2019-05-12T23:32:19.483Z,2.33
2019-05-12T23:34:58.511Z,2.47
2019-05-12T23:37:38.444Z,3.57
2019-05-12T23:40:11.614Z,2.20
2019-05-12T23:42:50.513Z,2.60
2019-05-12T23:45:25.469Z,2.63
2019-05-12T23:48:00.531Z,2.17
2019-05-12T23:50:35.476Z,2.10
2019-05-12T23:53:10.452Z,1.80
2019-05-12T23:55:45.394Z,1.60
2019-05-12T23:58:20.404Z,1.50
